createdAt,value
2019-05-29T00:01:20.368Z,80.90
2019-05-29T00:03:46.113Z,81.20
2019-05-29T00:06:14.332Z,81.30
2019-05-29T00:08:41.980Z,80.90
2019-05-29T00:11:10.140Z,81.00
2019-05-29T00:13:38.235Z,81.10
2019-05-29T00:16:06.202Z,81.90
2019-05-29T00:18:33.859Z,83.60
2019-05-29T00:21:01.649Z,83.30
2019-05-29T00:23:29.293Z,84.30
2019-05-29T00:25:56.936Z,84.20
2019-05-29T00:28:25.411Z,84.60
2019-05-29T00:30:52.898Z,84.60
2019-05-29T00:33:20.825Z,84.20
2019-05-29T00:35:48.614Z,83.50
2019-05-29T00:38:16.680Z,82.90
2019-05-29T00:40:44.627Z,82.90
2019-05-29T00:43:13.239Z,83.80
2019-05-29T00:45:41.605Z,84.40
2019-05-29T00:48:09.646Z,84.80
2019-05-29T00:50:38.272Z,85.30
2019-05-29T00:53:06.174Z,85.70
2019-05-29T00:55:33.670Z,86.00
2019-05-29T00:58:01.670Z,85.90
2019-05-29T01:00:29.206Z,85.70
2019-05-29T01:02:57.118Z,85.10
2019-05-29T01:05:25.004Z,84.80
2019-05-29T01:07:52.618Z,83.30
2019-05-29T01:10:20.856Z,83.00
2019-05-29T01:12:48.556Z,83.00
2019-05-29T01:15:17.406Z,82.90
2019-05-29T01:17:44.935Z,82.80
2019-05-29T01:20:14.012Z,82.90
2019-05-29T01:22:41.973Z,82.70
2019-05-29T01:25:09.486Z,81.90
2019-05-29T01:27:37.113Z,82.00
2019-05-29T01:30:05.181Z,82.80
2019-05-29T01:32:32.696Z,82.10
2019-05-29T01:35:00.192Z,82.80
2019-05-29T01:37:28.923Z,82.30
2019-05-29T01:39:56.341Z,83.20
2019-05-29T01:42:24.102Z,83.50
2019-05-29T01:45:06.655Z,83.70
2019-05-29T01:47:21.598Z,83.40
2019-05-29T01:49:49.829Z,82.90
2019-05-29T01:52:17.588Z,82.30
2019-05-29T01:54:45.272Z,81.80
2019-05-29T01:57:13.213Z,82.80
2019-05-29T01:59:41.171Z,82.80
2019-05-29T02:02:09.233Z,82.50
2019-05-29T02:04:36.659Z,83.10
2019-05-29T02:07:04.538Z,83.10
2019-05-29T02:09:32.049Z,83.60
2019-05-29T02:11:59.544Z,83.70
2019-05-29T02:14:27.125Z,83.90
2019-05-29T02:16:54.672Z,85.00
2019-05-29T02:19:22.322Z,85.00
2019-05-29T02:21:50.130Z,84.90
2019-05-29T02:24:19.025Z,85.30
2019-05-29T02:26:46.895Z,85.20
2019-05-29T02:29:14.413Z,85.30
2019-05-29T02:31:42.316Z,85.50
2019-05-29T02:34:10.854Z,85.60
2019-05-29T02:36:38.386Z,86.70
2019-05-29T02:39:06.840Z,85.90
2019-05-29T02:41:34.474Z,85.70
2019-05-29T02:44:02.036Z,86.30
2019-05-29T02:46:30.189Z,86.00
2019-05-29T02:48:57.936Z,85.60
2019-05-29T02:51:26.538Z,86.80
2019-05-29T02:53:55.348Z,87.40
2019-05-29T02:56:24.700Z,87.40
2019-05-29T02:58:53.702Z,87.00
2019-05-29T03:01:21.606Z,86.50
2019-05-29T03:03:51.229Z,86.20
2019-05-29T03:06:18.710Z,87.40
2019-05-29T03:08:46.238Z,88.20
2019-05-29T03:11:14.359Z,89.10
2019-05-29T03:13:41.868Z,88.80
2019-05-29T03:16:12.503Z,88.70
2019-05-29T03:18:39.560Z,88.90
2019-05-29T03:21:07.142Z,89.30
2019-05-29T03:23:36.152Z,89.30
2019-05-29T03:26:04.105Z,89.30
2019-05-29T03:28:33.026Z,89.00
2019-05-29T03:31:01.670Z,88.70
2019-05-29T03:33:35.987Z,89.10
2019-05-29T03:35:59.578Z,88.50
2019-05-29T03:38:28.293Z,88.70
2019-05-29T03:40:56.629Z,88.40
2019-05-29T03:43:24.167Z,88.70
2019-05-29T03:45:52.026Z,89.00
2019-05-29T03:48:19.532Z,89.20
2019-05-29T03:50:47.058Z,88.70
2019-05-29T03:53:14.586Z,88.50
2019-05-29T03:55:42.095Z,88.80
2019-05-29T03:58:09.844Z,88.90
2019-05-29T04:00:45.424Z,88.80
2019-05-29T04:03:07.136Z,88.80
2019-05-29T04:05:35.629Z,88.80
2019-05-29T04:08:03.663Z,88.50
2019-05-29T04:10:32.923Z,89.00
2019-05-29T04:13:00.970Z,88.90
2019-05-29T04:15:33.736Z,89.20
2019-05-29T04:18:06.939Z,88.90
2019-05-29T04:20:36.122Z,89.10
2019-05-29T04:23:05.981Z,90.00
2019-05-29T04:25:38.304Z,89.70
2019-05-29T04:28:09.760Z,89.50
2019-05-29T04:30:39.092Z,89.70
2019-05-29T04:33:07.469Z,89.50
2019-05-29T04:35:36.648Z,89.90
2019-05-29T04:38:04.525Z,89.30
2019-05-29T04:40:32.651Z,89.70
2019-05-29T04:43:00.815Z,90.00
2019-05-29T04:45:28.980Z,89.70
2019-05-29T04:47:57.323Z,90.20
2019-05-29T04:50:25.875Z,90.40
2019-05-29T04:52:53.404Z,90.80
2019-05-29T04:55:21.177Z,91.50
2019-05-29T04:57:50.950Z,90.70
2019-05-29T05:00:18.525Z,90.60
2019-05-29T05:02:46.437Z,90.00
2019-05-29T05:05:14.051Z,89.60
2019-05-29T05:07:42.105Z,89.20
2019-05-29T05:10:10.787Z,89.60
2019-05-29T05:12:40.055Z,88.00
2019-05-29T05:15:08.461Z,88.40
2019-05-29T05:17:36.304Z,89.00
2019-05-29T05:20:05.952Z,88.10
2019-05-29T05:22:34.283Z,88.40
2019-05-29T05:25:02.067Z,87.80
2019-05-29T05:27:30.134Z,87.70
2019-05-29T05:29:58.123Z,87.00
2019-05-29T05:32:25.527Z,85.30
2019-05-29T05:34:53.133Z,86.40
2019-05-29T05:37:20.677Z,85.60
2019-05-29T05:39:48.236Z,85.40
2019-05-29T05:42:17.019Z,85.70
2019-05-29T05:44:44.807Z,85.80
2019-05-29T05:47:12.383Z,85.20
2019-05-29T05:49:40.038Z,85.70
2019-05-29T05:52:07.539Z,85.80
2019-05-29T05:54:35.423Z,85.00
2019-05-29T05:57:02.999Z,85.10
2019-05-29T05:59:31.591Z,85.70
2019-05-29T06:01:59.171Z,86.20
2019-05-29T06:04:26.683Z,86.00
2019-05-29T06:06:55.868Z,86.90
2019-05-29T06:09:23.358Z,84.80
2019-05-29T06:11:51.050Z,84.80
2019-05-29T06:14:18.735Z,85.10
2019-05-29T06:16:46.299Z,85.10
2019-05-29T06:19:14.246Z,86.80
2019-05-29T06:21:42.858Z,86.40
2019-05-29T06:24:10.547Z,85.80
2019-05-29T06:26:38.977Z,84.70
2019-05-29T06:29:06.434Z,83.50
2019-05-29T06:31:35.265Z,84.00
2019-05-29T06:34:02.985Z,84.60
2019-05-29T06:36:30.587Z,85.00
2019-05-29T06:38:58.030Z,84.60
2019-05-29T06:41:25.556Z,84.50
2019-05-29T06:43:53.057Z,84.20
2019-05-29T06:46:20.905Z,84.20
2019-05-29T06:48:58.682Z,85.40
2019-05-29T06:51:18.193Z,86.00
2019-05-29T06:53:45.635Z,85.00
2019-05-29T06:56:13.183Z,84.20
2019-05-29T06:58:41.978Z,83.60
2019-05-29T07:01:09.848Z,84.80
2019-05-29T07:04:11.426Z,85.00
2019-05-29T07:06:26.304Z,85.30
2019-05-29T07:08:54.318Z,84.20
2019-05-29T07:11:21.869Z,83.10
2019-05-29T07:13:50.490Z,85.60
2019-05-29T07:16:19.666Z,82.60
2019-05-29T07:19:23.362Z,82.30
2019-05-29T07:21:16.909Z,82.80
2019-05-29T07:23:46.456Z,82.00
2019-05-29T07:26:14.033Z,83.20
2019-05-29T07:29:02.992Z,83.90
2019-05-29T07:43:11.669Z,85.40
2019-05-29T07:45:40.669Z,84.50
2019-05-29T07:48:09.297Z,84.50
2019-05-29T07:50:37.962Z,83.50
2019-05-29T07:53:05.700Z,93.50
2019-05-29T07:55:33.275Z,87.50
2019-05-29T07:58:01.720Z,82.80
2019-05-29T08:00:35.854Z,85.00
2019-05-29T08:02:58.856Z,84.70
2019-05-29T08:05:28.109Z,83.90
2019-05-29T08:07:55.674Z,87.50
2019-05-29T08:10:23.483Z,83.50
2019-05-29T08:12:55.268Z,84.50
2019-05-29T08:15:21.004Z,85.20
2019-05-29T08:17:48.551Z,86.10
2019-05-29T08:20:16.083Z,84.90
2019-05-29T08:22:44.401Z,84.90
2019-05-29T08:25:12.624Z,83.80
2019-05-29T08:27:40.649Z,83.30
2019-05-29T08:30:09.416Z,83.70
2019-05-29T08:32:37.034Z,87.50
2019-05-29T08:35:05.118Z,83.80
2019-05-29T08:37:33.407Z,82.70
2019-05-29T08:40:01.399Z,87.80
2019-05-29T08:42:29.884Z,83.20
2019-05-29T08:45:01.737Z,86.00
2019-05-29T08:47:29.377Z,83.40
2019-05-29T08:50:16.773Z,81.40
2019-05-29T08:52:26.610Z,81.30
2019-05-29T08:54:54.153Z,80.00
2019-05-29T08:57:22.026Z,80.10
2019-05-29T08:59:50.647Z,80.00
2019-05-29T09:02:18.393Z,81.60
2019-05-29T09:04:48.239Z,81.90
2019-05-29T09:07:15.824Z,82.40
2019-05-29T09:09:43.335Z,85.10
2019-05-29T09:12:10.865Z,81.00
2019-05-29T09:14:38.572Z,80.50
2019-05-29T09:17:06.250Z,81.00
2019-05-29T09:19:34.649Z,82.10
2019-05-29T09:22:02.591Z,81.80
2019-05-29T09:24:29.993Z,80.90
2019-05-29T09:26:57.402Z,79.60
2019-05-29T09:29:25.058Z,80.80
2019-05-29T09:31:52.611Z,79.50
2019-05-29T09:34:20.550Z,80.20
2019-05-29T09:36:48.973Z,80.80
2019-05-29T09:39:18.351Z,82.10
2019-05-29T09:41:46.923Z,80.10
2019-05-29T09:44:28.548Z,79.00
2019-05-29T09:46:44.308Z,79.50
2019-05-29T09:49:11.823Z,77.60
2019-05-29T09:51:39.410Z,78.40
2019-05-29T09:54:06.992Z,80.90
2019-05-29T09:56:34.655Z,81.70
2019-05-29T09:59:03.919Z,78.20
2019-05-29T10:01:32.353Z,77.10
2019-05-29T10:04:03.368Z,80.00
2019-05-29T10:06:30.088Z,78.10
2019-05-29T10:08:58.060Z,77.90
2019-05-29T10:11:26.098Z,78.00
2019-05-29T10:14:53.691Z,78.90
2019-05-29T10:17:22.600Z,78.50
2019-05-29T10:19:50.147Z,78.60
2019-05-29T10:22:18.406Z,79.70
2019-05-29T10:24:46.643Z,80.40
2019-05-29T10:27:14.198Z,78.30
2019-05-29T10:29:42.443Z,77.60
2019-05-29T10:32:10.169Z,80.20
2019-05-29T10:34:37.839Z,80.40
2019-05-29T10:37:05.477Z,81.00
2019-05-29T10:39:35.914Z,81.00
2019-05-29T10:42:03.801Z,80.10
2019-05-29T10:44:31.630Z,78.40
2019-05-29T10:46:59.520Z,75.40
2019-05-29T10:49:27.911Z,76.80
2019-05-29T10:52:12.904Z,74.80
2019-05-29T10:54:25.912Z,74.10
2019-05-29T10:56:54.828Z,72.80
2019-05-29T10:59:22.625Z,74.30
2019-05-29T11:01:51.235Z,76.20
2019-05-29T11:04:19.822Z,78.10
2019-05-29T11:06:48.034Z,71.60
2019-05-29T11:09:15.839Z,69.00
2019-05-29T11:11:43.489Z,70.50
2019-05-29T11:14:11.083Z,73.30
2019-05-29T11:16:40.006Z,75.40
2019-05-29T11:19:07.828Z,77.20
2019-05-29T11:21:35.418Z,78.10
2019-05-29T11:24:03.207Z,76.90
2019-05-29T11:26:31.022Z,76.00
2019-05-29T11:28:58.876Z,74.30
2019-05-29T11:31:28.203Z,71.60
2019-05-29T11:33:57.175Z,71.80
2019-05-29T11:36:25.114Z,73.00
2019-05-29T11:38:52.697Z,72.90
2019-05-29T11:41:26.367Z,72.80
2019-05-29T11:43:51.044Z,71.40
2019-05-29T11:46:19.096Z,73.90
2019-05-29T11:48:47.064Z,74.60
2019-05-29T11:51:14.617Z,71.90
2019-05-29T11:53:42.126Z,69.20
2019-05-29T11:56:09.565Z,70.90
2019-05-29T11:58:37.850Z,68.70
2019-05-29T12:01:05.800Z,69.50
2019-05-29T12:03:33.781Z,69.50
2019-05-29T12:06:03.219Z,75.30
2019-05-29T12:08:30.943Z,70.50
2019-05-29T12:10:59.483Z,69.50
2019-05-29T12:13:27.157Z,69.00
2019-05-29T12:15:55.796Z,71.00
2019-05-29T12:18:24.671Z,69.90
2019-05-29T12:20:53.888Z,69.50
2019-05-29T12:23:26.576Z,70.40
2019-05-29T12:26:11.642Z,69.60
2019-05-29T12:28:21.058Z,71.20
2019-05-29T12:30:49.934Z,73.70
2019-05-29T12:33:17.651Z,72.40
2019-05-29T12:35:45.626Z,68.20
2019-05-29T12:38:13.547Z,66.00
2019-05-29T12:40:41.209Z,66.00
2019-05-29T12:43:25.942Z,67.30
2019-05-29T12:45:38.479Z,66.40
2019-05-29T12:48:12.473Z,71.00
2019-05-29T12:50:35.264Z,64.90
2019-05-29T12:53:03.947Z,63.90
2019-05-29T12:55:32.227Z,63.00
2019-05-29T12:58:00.033Z,62.60
2019-05-29T13:00:27.980Z,63.30
2019-05-29T13:02:56.271Z,66.10
2019-05-29T13:05:23.971Z,68.90
2019-05-29T13:07:51.503Z,67.00
2019-05-29T13:10:30.010Z,69.40
2019-05-29T13:12:50.370Z,70.50
2019-05-29T13:15:18.927Z,66.60
2019-05-29T13:17:46.787Z,66.60
2019-05-29T13:20:21.719Z,65.40
2019-05-29T13:22:44.679Z,64.40
2019-05-29T13:25:12.448Z,63.50
2019-05-29T13:27:40.327Z,62.30
2019-05-29T13:30:08.529Z,59.80
2019-05-29T13:32:36.345Z,62.20
2019-05-29T13:35:06.176Z,61.10
2019-05-29T13:37:34.240Z,61.80
2019-05-29T13:40:06.489Z,62.60
2019-05-29T13:42:31.691Z,62.60
2019-05-29T13:45:01.618Z,64.80
2019-05-29T13:47:33.005Z,60.30
2019-05-29T13:50:05.802Z,59.80
2019-05-29T13:52:30.379Z,63.60
2019-05-29T13:54:59.230Z,59.30
2019-05-29T13:57:27.154Z,59.20
2019-05-29T13:59:55.128Z,59.40
2019-05-29T14:02:23.147Z,61.90
2019-05-29T14:04:51.529Z,60.10
2019-05-29T14:07:19.144Z,60.10
2019-05-29T14:09:46.546Z,57.80
2019-05-29T14:12:14.385Z,61.20
2019-05-29T14:14:41.740Z,61.00
2019-05-29T14:17:10.734Z,57.10
2019-05-29T14:19:38.645Z,61.10
2019-05-29T14:22:07.116Z,61.20
2019-05-29T14:24:35.296Z,59.90
2019-05-29T14:27:03.386Z,59.80
2019-05-29T14:29:31.049Z,60.00
2019-05-29T14:31:58.806Z,61.10
2019-05-29T14:34:26.722Z,61.50
2019-05-29T14:36:54.697Z,62.10
2019-05-29T14:39:22.366Z,61.00
2019-05-29T14:41:49.953Z,60.90
2019-05-29T14:44:18.083Z,59.10
2019-05-29T14:46:45.640Z,61.70
2019-05-29T14:49:13.556Z,60.20
2019-05-29T14:51:41.302Z,57.50
2019-05-29T14:54:09.162Z,59.30
2019-05-29T14:56:36.735Z,58.00
2019-05-29T14:59:05.531Z,56.00
2019-05-29T15:01:33.769Z,57.20
2019-05-29T15:04:01.564Z,57.20
2019-05-29T15:06:29.325Z,57.30
2019-05-29T15:08:58.584Z,57.90
2019-05-29T15:11:26.218Z,57.50
2019-05-29T15:13:54.225Z,57.00
2019-05-29T15:16:22.363Z,55.60
2019-05-29T15:18:50.267Z,56.30
2019-05-29T15:21:18.131Z,59.90
2019-05-29T15:23:45.695Z,56.50
2019-05-29T15:26:13.763Z,55.90
2019-05-29T15:28:41.335Z,56.00
2019-05-29T15:31:10.336Z,59.80
2019-05-29T15:33:38.018Z,58.50
2019-05-29T15:36:06.509Z,53.40
2019-05-29T15:38:34.609Z,54.80
2019-05-29T15:41:02.173Z,56.00
2019-05-29T15:43:30.200Z,54.80
2019-05-29T15:45:57.736Z,53.10
2019-05-29T15:48:25.256Z,52.30
2019-05-29T15:50:53.557Z,50.80
2019-05-29T15:53:21.092Z,51.50
2019-05-29T15:55:48.727Z,50.90
2019-05-29T15:58:17.962Z,49.20
2019-05-29T16:00:46.349Z,48.40
2019-05-29T16:03:14.131Z,48.80
2019-05-29T16:05:41.825Z,51.40
2019-05-29T16:08:09.891Z,50.00
2019-05-29T16:10:37.909Z,49.40
2019-05-29T16:13:05.421Z,50.00
2019-05-29T16:15:33.573Z,49.40
2019-05-29T16:18:02.992Z,50.30
2019-05-29T16:20:30.535Z,50.50
2019-05-29T16:22:58.379Z,51.20
2019-05-29T16:25:39.472Z,50.90
2019-05-29T16:27:55.225Z,51.00
2019-05-29T16:30:22.798Z,52.40
2019-05-29T16:32:50.557Z,50.00
2019-05-29T16:35:19.513Z,51.10
2019-05-29T16:37:47.366Z,50.70
2019-05-29T16:40:16.294Z,50.40
2019-05-29T16:42:44.025Z,51.00
2019-05-29T16:45:12.665Z,51.70
2019-05-29T16:47:40.520Z,49.20
2019-05-29T16:50:08.630Z,49.00
2019-05-29T16:52:36.196Z,49.00
2019-05-29T16:55:04.065Z,49.70
2019-05-29T16:57:31.711Z,50.20
2019-05-29T16:59:59.273Z,52.80
2019-05-29T17:02:27.107Z,51.30
2019-05-29T17:04:58.159Z,51.50
2019-05-29T17:07:24.562Z,53.30
2019-05-29T17:09:52.089Z,53.30
2019-05-29T17:12:20.514Z,52.60
2019-05-29T17:14:48.069Z,53.40
2019-05-29T17:17:16.775Z,53.50
2019-05-29T17:19:44.505Z,53.20
2019-05-29T17:22:12.309Z,53.00
2019-05-29T17:24:39.687Z,53.30
2019-05-29T17:27:07.486Z,53.30
2019-05-29T17:29:36.125Z,54.20
2019-05-29T17:32:03.667Z,54.40
2019-05-29T17:34:31.181Z,54.30
2019-05-29T17:36:58.842Z,54.50
2019-05-29T17:39:26.847Z,55.10
2019-05-29T17:41:54.501Z,54.70
2019-05-29T17:44:22.031Z,55.40
2019-05-29T17:46:49.605Z,55.20
2019-05-29T17:49:17.725Z,56.20
2019-05-29T17:51:45.431Z,55.90
2019-05-29T17:54:13.625Z,56.80
2019-05-29T17:56:41.427Z,56.50
2019-05-29T17:59:08.886Z,56.60
2019-05-29T18:01:36.437Z,56.50
2019-05-29T18:04:04.129Z,57.10
2019-05-29T18:06:31.895Z,57.30
2019-05-29T18:08:59.805Z,56.60
2019-05-29T18:11:27.745Z,56.60
2019-05-29T18:13:55.902Z,57.30
2019-05-29T18:16:23.590Z,56.90
2019-05-29T18:18:51.101Z,57.20
2019-05-29T18:21:19.585Z,57.70
2019-05-29T18:23:47.395Z,57.50
2019-05-29T18:26:14.915Z,57.40
2019-05-29T18:28:42.530Z,57.60
2019-05-29T18:31:10.031Z,57.70
2019-05-29T18:33:37.857Z,57.70
2019-05-29T18:36:05.373Z,57.70
2019-05-29T18:38:33.297Z,57.70
2019-05-29T18:41:00.961Z,57.60
2019-05-29T18:43:28.798Z,57.60
2019-05-29T18:45:56.674Z,57.90
2019-05-29T18:48:25.279Z,59.20
2019-05-29T18:50:52.997Z,60.70
2019-05-29T18:53:22.616Z,60.80
2019-05-29T18:55:50.726Z,61.00
2019-05-29T18:58:18.263Z,61.10
2019-05-29T19:00:45.995Z,61.00
2019-05-29T19:03:14.008Z,61.10
2019-05-29T19:05:42.366Z,61.70
2019-05-29T19:08:10.214Z,61.80
2019-05-29T19:10:37.950Z,61.80
2019-05-29T19:13:05.501Z,62.00
2019-05-29T19:15:33.030Z,62.10
2019-05-29T19:18:01.080Z,62.00
2019-05-29T19:20:30.383Z,61.20
2019-05-29T19:22:58.489Z,61.90
2019-05-29T19:25:26.803Z,62.80
2019-05-29T19:27:55.023Z,63.20
2019-05-29T19:30:22.854Z,64.20
2019-05-29T19:32:50.645Z,64.30
2019-05-29T19:35:18.943Z,64.40
2019-05-29T19:37:46.955Z,65.00
2019-05-29T19:40:15.226Z,64.00
2019-05-29T19:42:43.277Z,64.60
2019-05-29T19:45:11.221Z,64.50
2019-05-29T19:47:39.293Z,64.80
2019-05-29T19:50:11.152Z,64.90
2019-05-29T19:52:37.828Z,65.00
2019-05-29T19:55:06.357Z,64.90
2019-05-29T19:57:50.516Z,65.30
2019-05-29T20:00:05.626Z,65.00
2019-05-29T20:02:35.239Z,64.50
2019-05-29T20:05:03.130Z,64.10
2019-05-29T20:07:31.170Z,64.60
2019-05-29T20:09:58.740Z,64.90
2019-05-29T20:12:27.480Z,64.10
2019-05-29T20:14:55.478Z,64.90
2019-05-29T20:17:23.005Z,65.70
2019-05-29T20:19:50.969Z,65.90
2019-05-29T20:22:19.153Z,66.80
2019-05-29T20:24:48.036Z,66.40
2019-05-29T20:27:15.535Z,66.60
2019-05-29T20:29:43.117Z,66.90
2019-05-29T20:32:12.357Z,66.60
2019-05-29T20:34:41.031Z,66.60
2019-05-29T20:37:08.595Z,66.90
2019-05-29T20:39:36.886Z,67.00
2019-05-29T20:42:05.653Z,66.80
2019-05-29T20:44:34.525Z,67.30
2019-05-29T20:47:02.725Z,67.80
2019-05-29T20:49:31.828Z,67.70
2019-05-29T20:52:00.025Z,67.40
2019-05-29T20:54:27.613Z,66.90
2019-05-29T20:56:56.138Z,67.30
2019-05-29T20:59:23.673Z,68.10
2019-05-29T21:01:51.303Z,67.60
2019-05-29T21:04:18.953Z,67.70
2019-05-29T21:06:46.883Z,67.80
2019-05-29T21:09:14.473Z,67.80
2019-05-29T21:11:43.587Z,67.90
2019-05-29T21:14:11.407Z,68.30
2019-05-29T21:16:39.799Z,68.00
2019-05-29T21:19:09.178Z,68.40
2019-05-29T21:21:36.855Z,68.30
2019-05-29T21:24:04.394Z,68.50
2019-05-29T21:26:32.536Z,68.40
2019-05-29T21:29:00.349Z,68.90
2019-05-29T21:31:27.941Z,68.90
2019-05-29T21:33:55.545Z,68.90
2019-05-29T21:36:23.334Z,69.50
2019-05-29T21:38:51.144Z,69.40
2019-05-29T21:41:18.720Z,69.50
2019-05-29T21:43:47.045Z,69.80
2019-05-29T21:46:14.697Z,70.00
2019-05-29T21:48:43.354Z,69.10
2019-05-29T21:51:11.061Z,69.50
2019-05-29T21:53:39.276Z,69.20
2019-05-29T21:56:07.107Z,69.30
2019-05-29T21:58:34.654Z,68.90
2019-05-29T22:01:04.538Z,68.60
2019-05-29T22:03:32.167Z,68.60
2019-05-29T22:06:00.126Z,68.70
2019-05-29T22:08:27.600Z,69.10
2019-05-29T22:10:55.583Z,68.90
2019-05-29T22:13:24.093Z,68.40
2019-05-29T22:15:52.700Z,68.70
2019-05-29T22:18:20.470Z,69.20
2019-05-29T22:20:48.003Z,69.10
2019-05-29T22:23:15.524Z,69.20
2019-05-29T22:25:43.460Z,69.00
2019-05-29T22:28:10.997Z,69.30
2019-05-29T22:30:38.499Z,69.10
2019-05-29T22:33:06.109Z,69.30
2019-05-29T22:35:33.496Z,68.40
2019-05-29T22:38:01.888Z,69.00
2019-05-29T22:40:30.424Z,68.80
2019-05-29T22:42:58.001Z,69.60
2019-05-29T22:45:25.520Z,69.40
2019-05-29T22:47:53.711Z,69.80
2019-05-29T22:50:21.617Z,69.60
2019-05-29T22:52:49.343Z,69.90
2019-05-29T22:55:16.997Z,69.80
2019-05-29T22:57:44.602Z,69.20
2019-05-29T23:00:14.374Z,69.20
2019-05-29T23:02:41.879Z,70.20
2019-05-29T23:05:09.905Z,69.60
2019-05-29T23:07:37.382Z,69.50
2019-05-29T23:10:05.687Z,69.00
2019-05-29T23:12:33.332Z,69.20
2019-05-29T23:15:01.164Z,68.20
2019-05-29T23:17:28.709Z,68.70
2019-05-29T23:19:56.686Z,69.60
2019-05-29T23:22:24.754Z,69.00
2019-05-29T23:24:52.672Z,69.10
2019-05-29T23:27:20.494Z,69.80
2019-05-29T23:29:49.332Z,70.00
2019-05-29T23:32:17.271Z,69.90
2019-05-29T23:34:45.541Z,70.20
2019-05-29T23:37:13.968Z,69.30
2019-05-29T23:39:41.875Z,69.60
2019-05-29T23:42:09.589Z,70.00
2019-05-29T23:44:37.092Z,70.20
2019-05-29T23:47:05.379Z,69.70
2019-05-29T23:49:33.241Z,69.20
2019-05-29T23:52:02.573Z,69.30
2019-05-29T23:54:30.162Z,69.20
2019-05-29T23:56:57.964Z,68.90
2019-05-29T23:59:25.679Z,69.00
